Mountain View, OK (73062)

8:28 PM CDT on October 20, 2014 (GMT -0500)
Carnegie | Change Station
CLOSE
Current Station
Personal Weather Station
Location: Carnegie, OK
Elevation: 1358 ft
Nearby Weather Stations

Elev 1358 ft 35.14 °N, 98.60 °W | Updated 5 seconds ago

Clear
Clear
70.7 °F
Feels Like 77 °F
N
0.0
Wind Variable Wind from SE
Gusts 0.0 mph

Today
High -- | Low -- °F
--% Chance of Precip.
Yesterday
High -- | Low -- °F
Precip. -- in
7:45 AM 6:53 PM
Waning Crescent, 8% visible
Pressure 29.99 in
Visibility 10.0 miles
Clouds Clear
Heat Index 77 °F
Dew Point 53 °F
Humidity 54%
Rainfall -999.00 in
Snow Depth Not available.
UV 0 out of 12
Pollen 5.40 out of 12
Air Quality Not available.
Flu Activity No Activity
METAR KHBR 210053Z AUTO 16008KT 10SM CLR 22/14 A3002 RMK AO2 SLP156 T02170139

More Conditions Fewer Conditions

Pressure 29.99 in
Visibility 10.0 miles
Clouds Clear
Heat Index 77 °F
Dew Point 53 °F
Humidity 54%
Rainfall -999.00 in
Snow Depth Not available.
UV 0 out of 12
Pollen 5.40 out of 12
Air Quality Not available.
Flu Activity No Activity
METAR KHBR 210053Z AUTO 16008KT 10SM CLR 22/14 A3002 RMK AO2 SLP156 T02170139

More Conditions Fewer Conditions

10-Day Weather Forecast

Almanac

Astronomy

Oct. 20, 2014 Rise Set
Actual Time 7:45 AM CDT 6:53 PM CDT
Civil Twilight 7:19 AM CDT 7:19 PM CDT
Nautical Twilight 6:50 AM CDT 7:48 PM CDT
Astronomical Twilight 6:20 AM CDT 8:18 PM CDT
Moon 4:41 AM CDT (10/20) 5:11 PM CDT (10/20)
Length of Visible Light 11h 59m
Length of Day
11h 08m
Tomorrow will be 2m 4s shorter.
Waning Crescent, 8% of the Moon is Illuminated
Today
Waning Crescent
Oct 23
New
Oct 30
First Quarter
Nov 6
Full
Nov 14
Last Quarter

Today's Extremes

State Highs State Lows

Community

WunderPhotos

Upload Photos

1,763,577 photos uploaded!

Nearby

Snow Depth

Station Depth Elevation
No new snow has been reported.

Earthquake Activity

City Distance Mag. Time & Date
Medford, Oklahoma 122 miles 3.2 7:46 PM CDT
2014-10-20
Anthony, Kansas 142 miles 2.6 6:30 PM CDT
2014-10-20
Anthony, Kansas 142 miles 2.6 4:33 PM CDT
2014-10-20
Luther, Oklahoma 93 miles 2.8 4:33 PM CDT
2014-10-20
Minimum magnitude displayed is 2.5.

Coastal Water Temperatures

Place Temperature
No Stations Reporting

Nearby Weather Stations